Portada
METAR-TAF:

METAR-TAF

Aeroports :

Sumter, Carolina del Sud, Estats Units d'Amèrica

latitud: 33-59-42N, longitud: 080-21-41W, altitud: 55 m

Observació

L'informe es va fer fa 21 minuts, a les 00:55 UTC
Vent calma
Temperatura 26°C
Humitat 79%
Pressió 1017 hPa
Visibilitat: 16.1 km
Escasses núvols a una alçada de 2300 ft
Cel cobert a una alçada de 3700 ft
tempesta a les proximitats

METAR: KSMS 110055Z AUTO 00000KT 10SM VCTS FEW023 OVC037 26/22 A3002 RMK AO2 LTG DSNT ALQDS

Hora: 21:16 (01:16 UTC)


TAF: manca

Observacions i pronòstics meteorològics de més de 4000 aeroports (METAR i TAF).

Les estacions disponibles són els punts grocs i vermells al mapa.

Posi el ratolí al punt desitjat per veure el nom de l'estació.

Feu clic per veure les observacions i els pronòstics meteorològics.

Per canviar el mapa: feu clic els botons verds amb una creu de color negre per apropar; al botó verd amb un guió per allunyar la imatge; o en les fletxes verdes per a mapes adjacents.


METAR-TAF: